createdAt,value
2023-03-07T00:01:44.843Z,21.57
2023-03-07T00:04:13.929Z,19.70
2023-03-07T00:06:41.732Z,18.67
2023-03-07T00:09:10.750Z,20.97
2023-03-07T00:11:38.565Z,20.93
2023-03-07T00:14:10.117Z,19.60
2023-03-07T00:16:37.782Z,19.43
2023-03-07T00:19:08.088Z,21.03
2023-03-07T00:21:37.142Z,19.27
2023-03-07T00:24:05.776Z,18.87
2023-03-07T00:26:35.711Z,20.37
2023-03-07T00:29:03.607Z,19.50
2023-03-07T00:31:31.915Z,22.17
2023-03-07T00:33:59.712Z,19.67
2023-03-07T00:36:27.559Z,20.23
2023-03-07T00:38:56.993Z,20.07
2023-03-07T00:41:26.486Z,19.17
2023-03-07T00:43:55.105Z,18.67
2023-03-07T00:46:25.338Z,16.97
2023-03-07T00:48:53.189Z,19.83
2023-03-07T00:51:22.209Z,17.90
2023-03-07T00:53:50.275Z,23.13
2023-03-07T00:56:21.074Z,17.73
2023-03-07T00:58:49.493Z,16.53
2023-03-07T01:01:19.173Z,19.20
2023-03-07T01:03:49.625Z,18.43
2023-03-07T01:06:19.003Z,18.87
2023-03-07T01:08:46.970Z,18.30
2023-03-07T01:11:15.681Z,17.40
2023-03-07T01:13:45.214Z,18.57
2023-03-07T01:16:16.616Z,18.07
2023-03-07T01:18:45.523Z,18.03
2023-03-07T01:21:15.330Z,19.10
2023-03-07T01:23:43.316Z,18.20
2023-03-07T01:26:14.433Z,16.30
2023-03-07T01:28:43.952Z,18.70
2023-03-07T01:31:12.375Z,19.20
2023-03-07T01:33:40.779Z,17.10
2023-03-07T01:36:18.083Z,16.87
2023-03-07T01:38:45.862Z,15.70
2023-03-07T01:41:13.702Z,16.97
2023-03-07T01:43:41.410Z,15.87
2023-03-07T01:46:41.638Z,16.07
2023-03-07T01:49:16.425Z,16.47
2023-03-07T01:51:47.530Z,18.03
2023-03-07T01:54:18.582Z,16.13
2023-03-07T01:56:47.644Z,16.07
2023-03-07T01:59:20.432Z,15.30
2023-03-07T02:01:49.538Z,19.87
2023-03-07T02:04:24.557Z,16.43
2023-03-07T02:06:52.275Z,16.40
2023-03-07T02:09:23.489Z,15.47
2023-03-07T02:11:51.497Z,16.37
2023-03-07T02:14:19.592Z,15.13
2023-03-07T02:16:47.612Z,18.80
2023-03-07T02:19:36.722Z,14.67
2023-03-07T02:22:10.692Z,14.37
2023-03-07T02:24:46.603Z,15.30
2023-03-07T02:27:16.094Z,15.93
2023-03-07T02:29:43.845Z,17.10
2023-03-07T02:32:12.004Z,16.17
2023-03-07T02:34:39.726Z,16.33
2023-03-07T02:37:11.804Z,16.33
2023-03-07T02:39:40.449Z,16.13
2023-03-07T02:42:12.208Z,15.13
2023-03-07T02:44:41.244Z,16.83
2023-03-07T02:47:09.851Z,15.43
2023-03-07T02:49:37.604Z,15.30
2023-03-07T02:52:05.886Z,15.93
2023-03-07T02:54:33.568Z,15.40
2023-03-07T02:57:01.312Z,16.27
2023-03-07T02:59:28.993Z,13.77
2023-03-07T03:01:58.928Z,17.40
2023-03-07T03:04:26.741Z,15.13
2023-03-07T03:06:54.689Z,15.07
2023-03-07T03:09:22.417Z,16.63
2023-03-07T03:11:50.205Z,14.60
2023-03-07T03:14:17.925Z,16.13
2023-03-07T03:16:45.663Z,16.33
2023-03-07T03:19:14.690Z,15.87
2023-03-07T03:21:42.796Z,16.53
2023-03-07T03:24:11.619Z,16.30
2023-03-07T03:26:39.850Z,19.33
2023-03-07T03:29:07.713Z,18.47
2023-03-07T03:31:35.741Z,17.47
2023-03-07T03:34:05.145Z,18.97
2023-03-07T03:36:34.481Z,20.47
2023-03-07T03:39:02.206Z,21.83
2023-03-07T03:41:29.895Z,20.63
2023-03-07T03:43:57.810Z,17.77
2023-03-07T03:46:25.555Z,17.57
2023-03-07T03:48:54.272Z,17.57
2023-03-07T03:51:23.118Z,19.03
2023-03-07T03:53:52.714Z,16.53
2023-03-07T03:56:23.280Z,20.03
2023-03-07T03:58:53.787Z,17.60
2023-03-07T04:01:23.412Z,16.80
2023-03-07T04:03:52.896Z,16.43
2023-03-07T04:06:23.584Z,19.57
2023-03-07T04:08:53.977Z,17.87
2023-03-07T04:11:22.691Z,15.10
2023-03-07T04:13:50.724Z,19.33
2023-03-07T04:16:18.888Z,15.97
2023-03-07T04:18:46.613Z,17.40
2023-03-07T04:21:15.096Z,17.50
2023-03-07T04:23:42.923Z,16.57
2023-03-07T04:26:12.446Z,16.97
2023-03-07T04:28:44.094Z,15.87
2023-03-07T04:31:12.117Z,17.13
2023-03-07T04:33:41.333Z,16.00
2023-03-07T04:36:09.433Z,19.77
2023-03-07T04:38:38.187Z,18.33
2023-03-07T04:41:06.321Z,17.10
2023-03-07T04:43:35.576Z,17.77
2023-03-07T04:46:03.438Z,16.07
2023-03-07T04:48:31.216Z,16.03
2023-03-07T04:50:58.869Z,18.40
2023-03-07T04:53:26.532Z,19.33
2023-03-07T04:55:58.704Z,15.47
2023-03-07T04:58:26.617Z,16.37
2023-03-07T05:00:56.774Z,17.60
2023-03-07T05:03:26.243Z,16.47
2023-03-07T05:05:54.728Z,18.10
2023-03-07T05:08:23.415Z,18.90
2023-03-07T05:10:51.295Z,17.27
2023-03-07T05:13:19.084Z,17.50
2023-03-07T05:15:52.685Z,16.73
2023-03-07T05:18:22.976Z,16.40
2023-03-07T05:20:51.644Z,15.47
2023-03-07T05:23:20.475Z,19.63
2023-03-07T05:25:48.436Z,16.57
2023-03-07T05:28:16.885Z,19.53
2023-03-07T05:30:44.931Z,16.40
2023-03-07T05:33:12.766Z,17.07
2023-03-07T05:35:41.975Z,18.93
2023-03-07T05:38:09.975Z,17.87
2023-03-07T05:40:37.749Z,19.70
2023-03-07T05:43:05.742Z,17.50
2023-03-07T05:45:33.524Z,17.70
2023-03-07T05:48:01.319Z,20.53
2023-03-07T05:50:29.017Z,14.70
2023-03-07T05:52:58.079Z,14.03
2023-03-07T05:55:25.773Z,16.90
2023-03-07T05:57:53.739Z,17.27
2023-03-07T06:00:22.948Z,16.83
2023-03-07T06:02:51.011Z,20.37
2023-03-07T06:05:19.077Z,16.93
2023-03-07T06:07:47.189Z,18.77
2023-03-07T06:10:16.700Z,14.87
2023-03-07T06:12:44.672Z,15.97
2023-03-07T06:15:12.568Z,18.20
2023-03-07T06:17:40.824Z,15.43
2023-03-07T06:20:09.866Z,18.37
2023-03-07T06:22:38.168Z,16.57
2023-03-07T06:25:06.672Z,15.77
2023-03-07T06:27:36.241Z,16.57
2023-03-07T06:30:06.594Z,17.07
2023-03-07T06:32:34.414Z,13.50
2023-03-07T06:35:02.297Z,17.13
2023-03-07T06:37:30.104Z,13.87
2023-03-07T06:39:58.130Z,14.43
2023-03-07T06:42:25.883Z,13.90
2023-03-07T06:44:55.008Z,13.97
2023-03-07T06:47:22.718Z,15.67
2023-03-07T06:49:50.531Z,16.50
2023-03-07T06:52:18.198Z,14.07
2023-03-07T06:54:45.987Z,17.80
2023-03-07T06:57:13.732Z,14.50
2023-03-07T06:59:41.745Z,13.73
2023-03-07T07:02:15.379Z,14.27
2023-03-07T07:04:43.308Z,15.70
2023-03-07T07:07:11.141Z,15.20
2023-03-07T07:09:38.998Z,15.37
2023-03-07T07:12:07.796Z,14.27
2023-03-07T07:14:35.605Z,15.07
2023-03-07T07:17:03.655Z,15.97
2023-03-07T07:19:34.010Z,14.20
2023-03-07T07:22:01.952Z,15.00
2023-03-07T07:24:29.693Z,17.47
2023-03-07T07:26:58.873Z,12.60
2023-03-07T07:29:27.054Z,16.00
2023-03-07T07:31:55.073Z,16.37
2023-03-07T07:34:22.903Z,19.00
2023-03-07T07:36:53.113Z,15.17
2023-03-07T07:39:21.793Z,15.10
2023-03-07T07:41:49.551Z,15.17
2023-03-07T07:44:17.362Z,14.47
2023-03-07T07:46:45.082Z,14.70
2023-03-07T07:49:13.026Z,17.67
2023-03-07T07:51:41.101Z,14.87
2023-03-07T07:54:10.481Z,14.33
2023-03-07T07:56:38.303Z,14.13
2023-03-07T07:59:05.977Z,14.73
2023-03-07T08:01:35.330Z,17.50
2023-03-07T08:04:03.073Z,13.47
2023-03-07T08:06:31.535Z,12.60
2023-03-07T08:09:00.120Z,14.23
2023-03-07T08:11:29.363Z,15.00
2023-03-07T08:13:57.086Z,13.57
2023-03-07T08:16:26.135Z,13.40
2023-03-07T08:18:55.823Z,16.03
2023-03-07T08:21:24.402Z,16.83
2023-03-07T08:23:52.278Z,17.93
2023-03-07T08:26:20.047Z,12.30
2023-03-07T08:28:49.369Z,15.80
2023-03-07T08:31:19.305Z,13.70
2023-03-07T08:33:47.972Z,11.57
2023-03-07T08:36:16.578Z,16.97
2023-03-07T08:38:44.866Z,15.90
2023-03-07T08:41:12.623Z,11.87
2023-03-07T08:43:40.303Z,14.17
2023-03-07T08:46:09.464Z,16.27
2023-03-07T08:48:37.231Z,12.77
2023-03-07T08:51:06.735Z,11.90
2023-03-07T08:53:34.760Z,11.57
2023-03-07T08:56:07.186Z,11.47
2023-03-07T08:58:34.992Z,11.57
2023-03-07T09:01:02.802Z,14.60
2023-03-07T09:03:31.991Z,15.97
2023-03-07T09:05:59.708Z,12.23
2023-03-07T09:08:27.697Z,11.63
2023-03-07T09:10:55.375Z,12.27
2023-03-07T09:13:23.002Z,13.77
2023-03-07T09:15:50.663Z,11.97
2023-03-07T09:18:18.444Z,13.27
2023-03-07T09:20:47.537Z,11.90
2023-03-07T09:23:15.366Z,10.80
2023-03-07T09:25:44.442Z,9.03
2023-03-07T09:28:12.680Z,12.23
2023-03-07T09:30:40.499Z,14.10
2023-03-07T09:33:08.304Z,11.87
2023-03-07T09:35:36.190Z,10.33
2023-03-07T09:38:05.450Z,12.03
2023-03-07T09:40:33.291Z,10.93
2023-03-07T09:43:09.874Z,12.43
2023-03-07T09:45:50.689Z,13.50
2023-03-07T09:48:51.930Z,12.30
2023-03-07T09:51:23.904Z,11.77
2023-03-07T09:53:56.298Z,9.20
2023-03-07T09:56:28.361Z,9.00
2023-03-07T09:59:04.971Z,12.43
2023-03-07T10:01:40.674Z,8.37
2023-03-07T10:04:18.690Z,11.50
2023-03-07T10:06:53.744Z,10.23
2023-03-07T10:09:24.707Z,9.37
2023-03-07T10:12:09.982Z,10.30
2023-03-07T10:14:56.076Z,9.20
2023-03-07T10:17:35.176Z,8.27
2023-03-07T10:20:14.374Z,11.87
2023-03-07T10:22:49.670Z,7.13
2023-03-07T10:25:27.746Z,9.40
2023-03-07T10:28:02.676Z,10.40
2023-03-07T10:30:32.316Z,7.63
2023-03-07T10:33:01.695Z,8.67
2023-03-07T10:35:40.325Z,8.03
2023-03-07T10:38:19.336Z,6.43
2023-03-07T10:40:53.723Z,10.67
2023-03-07T10:43:25.574Z,9.77
2023-03-07T10:45:57.698Z,7.70
2023-03-07T10:48:26.978Z,9.50
2023-03-07T10:51:02.410Z,8.53
2023-03-07T10:53:34.022Z,8.47
2023-03-07T10:56:14.439Z,8.90
2023-03-07T10:59:01.090Z,6.87
2023-03-07T11:01:29.893Z,8.60
2023-03-07T11:04:01.462Z,6.83
2023-03-07T11:06:34.714Z,7.87
2023-03-07T11:09:19.406Z,6.83
2023-03-07T11:11:58.112Z,8.00
2023-03-07T11:14:26.904Z,5.87
2023-03-07T11:16:56.693Z,6.20
2023-03-07T11:19:37.836Z,6.73
2023-03-07T11:22:17.213Z,5.83
2023-03-07T11:24:51.202Z,6.20
2023-03-07T11:27:25.565Z,6.47
2023-03-07T11:30:19.877Z,8.30
2023-03-07T11:33:11.527Z,6.33
2023-03-07T11:35:58.151Z,6.90
2023-03-07T11:38:48.763Z,8.13
2023-03-07T11:41:25.903Z,7.50
2023-03-07T11:44:07.527Z,7.80
2023-03-07T11:46:46.088Z,5.90
2023-03-07T11:49:26.471Z,6.73
2023-03-07T11:52:06.833Z,5.33
2023-03-07T11:54:44.835Z,7.37
2023-03-07T11:57:25.874Z,5.07
2023-03-07T12:00:12.591Z,5.70
2023-03-07T12:02:55.325Z,7.73
2023-03-07T12:05:37.267Z,6.07
2023-03-07T12:08:26.176Z,6.77
2023-03-07T12:11:05.394Z,7.27
2023-03-07T12:13:41.730Z,8.00
2023-03-07T12:16:24.255Z,5.67
2023-03-07T12:19:14.297Z,6.50
2023-03-07T12:22:01.688Z,6.00
2023-03-07T12:24:36.560Z,5.47
2023-03-07T12:27:12.105Z,11.00
2023-03-07T12:29:43.527Z,9.27
2023-03-07T12:32:17.602Z,5.00
2023-03-07T12:34:51.724Z,10.63
2023-03-07T12:37:24.342Z,8.03
2023-03-07T12:39:56.876Z,7.33
2023-03-07T12:42:35.944Z,7.40
2023-03-07T12:45:10.575Z,6.67
2023-03-07T12:47:52.779Z,7.50
2023-03-07T12:50:25.747Z,9.90
2023-03-07T12:52:59.559Z,6.20
2023-03-07T12:55:29.175Z,5.53
2023-03-07T12:58:08.771Z,6.93
2023-03-07T13:00:42.181Z,5.67
2023-03-07T13:03:19.708Z,5.63
2023-03-07T13:05:48.981Z,5.97
2023-03-07T13:08:23.528Z,6.23
2023-03-07T13:10:52.238Z,8.27
2023-03-07T13:13:55.369Z,7.97
2023-03-07T13:16:51.891Z,7.23
2023-03-07T13:19:54.009Z,5.83
2023-03-07T13:23:00.332Z,7.67
2023-03-07T13:26:04.602Z,6.30
2023-03-07T13:28:44.175Z,5.03
2023-03-07T13:50:38.750Z,9.90
2023-03-07T13:53:14.826Z,6.03
2023-03-07T13:55:46.420Z,8.23
2023-03-07T13:58:24.319Z,6.50
2023-03-07T14:00:56.244Z,8.00
2023-03-07T14:03:33.571Z,5.17
2023-03-07T14:06:10.296Z,6.30
2023-03-07T14:08:38.534Z,5.80
2023-03-07T14:11:15.811Z,6.70
2023-03-07T14:14:26.085Z,5.30
2023-03-07T14:17:08.277Z,4.67
2023-03-07T14:19:49.428Z,6.50
2023-03-07T14:22:31.556Z,6.10
2023-03-07T14:25:18.764Z,4.93
2023-03-07T14:27:52.779Z,3.93
2023-03-07T14:30:21.865Z,7.57
2023-03-07T14:32:49.649Z,9.37
2023-03-07T14:35:34.385Z,6.53
2023-03-07T14:38:06.552Z,5.33
2023-03-07T14:40:42.532Z,5.27
2023-03-07T14:43:30.841Z,7.50
2023-03-07T14:46:08.184Z,4.17
2023-03-07T14:48:48.285Z,8.47
2023-03-07T14:51:20.378Z,5.23
2023-03-07T14:53:50.112Z,7.33
2023-03-07T14:56:23.606Z,5.20
2023-03-07T14:58:54.233Z,5.10
2023-03-07T15:01:22.146Z,9.30
2023-03-07T15:03:52.031Z,6.03
2023-03-07T15:06:23.261Z,4.67
2023-03-07T15:08:53.350Z,5.17
2023-03-07T15:11:30.154Z,4.93
2023-03-07T15:14:00.672Z,5.13
2023-03-07T15:16:32.384Z,7.53
2023-03-07T15:19:05.608Z,6.83
2023-03-07T15:21:39.641Z,5.30
2023-03-07T15:24:18.358Z,6.00
2023-03-07T15:26:50.859Z,8.60
2023-03-07T15:29:22.979Z,5.30
2023-03-07T15:31:57.413Z,8.67
2023-03-07T15:34:27.371Z,5.97
2023-03-07T15:36:55.710Z,6.33
2023-03-07T15:39:34.268Z,6.23
2023-03-07T15:42:04.890Z,6.37
2023-03-07T15:44:33.362Z,6.90
2023-03-07T15:47:05.855Z,6.37
2023-03-07T15:49:41.734Z,8.07
2023-03-07T15:52:21.582Z,7.27
2023-03-07T15:54:53.523Z,4.97
2023-03-07T15:57:23.543Z,5.27
2023-03-07T15:59:55.159Z,11.03
2023-03-07T16:02:43.775Z,4.93
2023-03-07T16:05:33.800Z,7.27
2023-03-07T16:08:01.630Z,6.97
2023-03-07T16:10:32.856Z,9.50
2023-03-07T16:13:02.166Z,7.30
2023-03-07T16:15:30.232Z,6.07
2023-03-07T16:17:58.815Z,6.33
2023-03-07T16:20:28.838Z,6.63
2023-03-07T16:22:57.009Z,4.20
2023-03-07T16:25:27.507Z,6.83
2023-03-07T16:27:59.182Z,4.23
2023-03-07T16:30:29.130Z,6.27
2023-03-07T16:32:57.544Z,5.97
2023-03-07T16:35:27.393Z,9.30
2023-03-07T16:37:56.071Z,6.67
2023-03-07T16:40:26.001Z,6.80
2023-03-07T16:42:54.294Z,5.90
2023-03-07T16:45:27.011Z,7.27
2023-03-07T16:47:56.605Z,9.80
2023-03-07T16:50:26.658Z,6.50
2023-03-07T16:52:54.615Z,6.77
2023-03-07T16:55:23.278Z,6.00
2023-03-07T16:57:54.117Z,6.77
2023-03-07T17:00:25.797Z,5.97
2023-03-07T17:02:54.964Z,4.40
2023-03-07T17:05:25.646Z,5.17
2023-03-07T17:07:53.838Z,5.63
2023-03-07T17:10:22.419Z,6.37
2023-03-07T17:12:50.864Z,5.90
2023-03-07T17:15:22.555Z,8.23
2023-03-07T17:17:51.711Z,7.17
2023-03-07T17:20:21.229Z,5.13
2023-03-07T17:22:50.416Z,9.43
2023-03-07T17:25:18.535Z,10.37
2023-03-07T17:27:49.993Z,6.10
2023-03-07T17:30:22.135Z,7.17
2023-03-07T17:32:53.904Z,7.97
2023-03-07T17:35:23.337Z,5.97
2023-03-07T17:37:53.941Z,6.23
2023-03-07T17:40:22.328Z,6.83
2023-03-07T17:42:51.584Z,5.60
2023-03-07T17:45:19.885Z,7.43
2023-03-07T17:47:53.953Z,7.33
2023-03-07T17:50:23.950Z,6.97
2023-03-07T17:52:52.577Z,4.97
2023-03-07T17:55:21.284Z,9.60
2023-03-07T17:57:49.074Z,6.87
2023-03-07T18:00:19.686Z,7.90
2023-03-07T18:02:48.594Z,5.17
2023-03-07T18:05:19.102Z,6.37
2023-03-07T18:07:47.172Z,5.60
2023-03-07T18:10:14.876Z,6.80
2023-03-07T18:12:42.614Z,8.67
2023-03-07T18:15:14.486Z,6.83
2023-03-07T18:17:48.168Z,7.00
2023-03-07T18:20:19.496Z,7.60
2023-03-07T18:22:49.625Z,6.27
2023-03-07T18:25:19.161Z,7.17
2023-03-07T18:27:47.489Z,7.53
2023-03-07T18:30:16.307Z,8.20
2023-03-07T18:32:44.107Z,7.27
2023-03-07T18:35:15.397Z,8.70
2023-03-07T18:37:45.403Z,7.07
2023-03-07T18:40:14.450Z,8.60
2023-03-07T18:42:43.403Z,7.07
2023-03-07T18:45:12.248Z,8.03
2023-03-07T18:47:39.994Z,8.33
2023-03-07T18:50:09.297Z,6.83
2023-03-07T18:52:37.028Z,6.13
2023-03-07T18:55:07.070Z,7.53
2023-03-07T18:57:34.853Z,7.10
2023-03-07T19:00:02.656Z,7.23
2023-03-07T19:02:30.486Z,7.90
2023-03-07T19:04:58.275Z,6.00
2023-03-07T19:07:27.919Z,8.63
2023-03-07T19:09:55.872Z,5.37
2023-03-07T19:12:25.028Z,8.63
2023-03-07T19:14:52.815Z,7.40
2023-03-07T19:17:20.582Z,7.13
2023-03-07T19:19:48.503Z,7.70
2023-03-07T19:22:21.506Z,6.70
2023-03-07T19:24:50.128Z,6.83
2023-03-07T19:27:18.024Z,8.37
2023-03-07T19:29:47.395Z,8.07
2023-03-07T19:32:17.934Z,9.37
2023-03-07T19:34:49.049Z,6.40
2023-03-07T19:37:16.772Z,5.50
2023-03-07T19:39:44.801Z,6.40
2023-03-07T19:42:12.458Z,5.33
2023-03-07T19:44:40.202Z,7.30
2023-03-07T19:47:09.300Z,7.50
2023-03-07T19:49:37.042Z,5.67
2023-03-07T19:52:05.195Z,7.63
2023-03-07T19:54:33.275Z,5.03
2023-03-07T19:57:01.164Z,5.67
2023-03-07T19:59:29.353Z,8.20
2023-03-07T20:01:57.470Z,6.00
2023-03-07T20:04:28.643Z,7.33
2023-03-07T20:06:56.610Z,8.27
2023-03-07T20:09:26.510Z,6.47
2023-03-07T20:11:56.204Z,9.33
2023-03-07T20:14:26.454Z,7.40
2023-03-07T20:16:54.847Z,6.83
2023-03-07T20:19:23.059Z,5.97
2023-03-07T20:21:52.744Z,6.43
2023-03-07T20:24:21.896Z,6.40
2023-03-07T20:26:49.730Z,8.93
2023-03-07T20:29:17.801Z,8.47
2023-03-07T20:31:48.795Z,8.03
2023-03-07T20:34:16.952Z,8.57
2023-03-07T20:36:45.214Z,9.13
2023-03-07T20:39:16.545Z,5.57
2023-03-07T20:41:45.822Z,6.80
2023-03-07T20:44:16.715Z,5.50
2023-03-07T20:46:45.666Z,7.40
2023-03-07T20:49:16.369Z,6.80
2023-03-07T20:51:44.985Z,6.40
2023-03-07T20:54:17.365Z,6.77
2023-03-07T20:56:47.275Z,4.37
2023-03-07T20:59:17.558Z,6.20
2023-03-07T21:01:48.038Z,6.03
2023-03-07T21:04:18.727Z,5.80
2023-03-07T21:06:48.593Z,6.87
2023-03-07T21:09:22.561Z,5.57
2023-03-07T21:11:51.910Z,11.80
2023-03-07T21:14:23.308Z,6.03
2023-03-07T21:16:54.980Z,6.37
2023-03-07T21:19:22.980Z,5.73
2023-03-07T21:21:50.829Z,7.50
2023-03-07T21:24:20.567Z,7.63
2023-03-07T21:26:48.896Z,7.10
2023-03-07T21:29:17.511Z,5.00
2023-03-07T21:31:45.451Z,6.33
2023-03-07T21:34:17.011Z,8.17
2023-03-07T21:36:48.011Z,4.23
2023-03-07T21:39:15.949Z,4.87
2023-03-07T21:44:39.135Z,4.47
2023-03-07T21:47:07.653Z,7.40
2023-03-07T21:49:35.570Z,7.23
2023-03-07T21:52:06.118Z,4.13
2023-03-07T21:54:34.900Z,6.20
2023-03-07T21:57:06.609Z,7.10
2023-03-07T21:59:36.861Z,7.93
2023-03-07T22:02:06.904Z,4.73
2023-03-07T22:04:35.264Z,5.80
2023-03-07T22:07:04.128Z,5.33
2023-03-07T22:09:31.901Z,4.27
2023-03-07T22:12:00.907Z,7.17
2023-03-07T22:14:30.164Z,5.73
2023-03-07T22:16:58.759Z,4.87
2023-03-07T22:19:28.222Z,5.90
2023-03-07T22:21:56.882Z,5.53
2023-03-07T22:24:24.796Z,7.13
2023-03-07T22:26:52.787Z,5.97
2023-03-07T22:29:21.123Z,8.57
2023-03-07T22:31:49.870Z,8.00
2023-03-07T22:34:17.901Z,7.93
2023-03-07T22:36:50.969Z,6.20
2023-03-07T22:39:19.446Z,5.83
2023-03-07T22:41:47.528Z,5.97
2023-03-07T22:44:16.011Z,5.93
2023-03-07T22:46:45.061Z,6.13
2023-03-07T22:49:13.477Z,6.10
2023-03-07T22:51:41.577Z,6.23
2023-03-07T22:54:13.080Z,6.53
2023-03-07T22:56:42.254Z,6.93
2023-03-07T22:59:11.390Z,7.50
2023-03-07T23:01:40.083Z,8.23
2023-03-07T23:04:09.886Z,7.93
2023-03-07T23:06:38.820Z,5.93
2023-03-07T23:09:08.916Z,6.77
2023-03-07T23:11:40.012Z,5.97
2023-03-07T23:14:08.038Z,6.03
2023-03-07T23:16:39.387Z,8.77
2023-03-07T23:19:07.409Z,7.60
2023-03-07T23:21:35.866Z,6.97
2023-03-07T23:24:04.895Z,9.33
2023-03-07T23:26:34.960Z,8.93
2023-03-07T23:29:05.158Z,8.53
2023-03-07T23:31:35.600Z,7.50
2023-03-07T23:34:05.339Z,5.83
2023-03-07T23:36:34.136Z,7.00
2023-03-07T23:39:02.157Z,7.10
2023-03-07T23:41:29.936Z,6.63
2023-03-07T23:43:59.858Z,7.37
2023-03-07T23:46:30.174Z,8.80
2023-03-07T23:48:58.601Z,6.37
2023-03-07T23:51:26.407Z,6.30
2023-03-07T23:53:54.148Z,8.57
2023-03-07T23:56:22.105Z,7.23
2023-03-07T23:58:50.832Z,8.73
